Weather History for KMAO - January, 2013

Change the Weather History Date:

Thursday, January 24, 2013

  Actual Average (KFLO) Record (KFLO)
Temperature  
Mean Temperature 40 °F 45 °F  
Max Temperature 53 °F 56 °F 84 °F (1974)
Min Temperature 28 °F 35 °F 13 °F (2003)
Degree Days  
Heating Degree Days 24 20  
Month to date heating degree days 487  
Since 1 July heating degree days 1466  
Cooling Degree Days 0 0  
Month to date cooling degree days 0  
Year to date cooling degree days 0  
Moisture  
Dew Point 26 °F    
Average Humidity 56    
Maximum Humidity 81    
Minimum Humidity 31    
Precipitation  
Precipitation 0.00 in 0.10 in 1.48 in (1999)
Month to date precipitation 2.51  
Year to date precipitation 2.51  
Sea Level Pressure  
Sea Level Pressure 30.24 in    
Wind  
Wind Speed 10 mph (NNW)    
Max Wind Speed 20 mph    
Max Gust Speed 25 mph    
Visibility 10 miles    
Events      
T = Trace of Precipitation, MM = Missing Value Source: NWS Daily Summary

Daily Weather History Graph

Daily Weather History Graph

Search for Another Location

Airport or City:

Trip Planner

Search our weather history database for the weather conditions in past years. The results will help you decide how hot, cold, wet, or windy it might be!

Date:

Astronomy

Jan. 24, 2013 Rise Set
Actual Time 7:19 AM EST 5:39 PM EST
Civil Twilight 6:52 AM EST 6:06 PM EST
Nautical Twilight 6:22 AM EST 6:36 PM EST
Astronomical Twilight 5:52 AM EST 7:06 PM EST
Moon 3:41 PM EST (1/24) 5:14 AM EST (1/24)
Length of Visible Light 11h 13m
Length of Day
10h 20m
Waxing Gibbous, 94% of the Moon is Illuminated
Jan 24
Waxing Gibbous
Jan 26
Full
Feb 3
Last Quarter
Feb 10
New
Feb 17
First Quarter

Hourly Weather History & Observations

Time (EST) Temp. Windchill Dew Point Humidity Pressure Visibility Wind Dir Wind Speed Gust Speed Precip Events Conditions
12:15 AM 37.4 °F 31.4 °F 32.0 °F 81% 30.13 in 10.0 mi SSW 8.1 mph - N/A   Clear
12:35 AM 37.4 °F 31.4 °F 32.0 °F 81% 30.12 in 10.0 mi SSW 8.1 mph - N/A   Clear
12:55 AM 37.4 °F 32.1 °F 32.0 °F 81% 30.11 in 10.0 mi SSW 6.9 mph - N/A   Clear
1:15 AM 37.4 °F 32.8 °F 32.0 °F 81% 30.10 in 10.0 mi SSW 5.8 mph - N/A   Clear
1:55 AM 41.0 °F 35.8 °F 32.0 °F 70% 30.09 in 10.0 mi SW 8.1 mph - N/A   Clear
2:15 AM 41.0 °F 36.4 °F 32.0 °F 70% 30.08 in 10.0 mi SW 6.9 mph - N/A   Clear
2:35 AM 42.8 °F 37.5 °F 32.0 °F 66% 30.07 in 10.0 mi SW 9.2 mph - N/A   Clear
2:55 AM 42.8 °F 37.0 °F 33.8 °F 70% 30.06 in 10.0 mi SW 10.4 mph 16.1 mph N/A   Clear
3:15 AM 44.6 °F 39.2 °F 33.8 °F 66% 30.06 in 10.0 mi SW 10.4 mph - N/A   Clear
3:35 AM 44.6 °F 39.2 °F 33.8 °F 66% 30.05 in 10.0 mi SW 10.4 mph - N/A   Clear
3:55 AM 44.6 °F 39.7 °F 33.8 °F 66% 30.04 in 10.0 mi SW 9.2 mph 16.1 mph N/A   Clear
4:15 AM 44.6 °F 39.2 °F 35.6 °F 71% 30.03 in 10.0 mi SW 10.4 mph 17.3 mph N/A   Clear
4:35 AM 44.6 °F 38.4 °F 35.6 °F 71% 30.02 in 10.0 mi WSW 12.7 mph 17.3 mph N/A   Clear
4:55 AM 44.6 °F 39.2 °F 35.6 °F 71% 30.03 in 10.0 mi WSW 10.4 mph 16.1 mph N/A   Clear
5:15 AM 44.6 °F 39.7 °F 35.6 °F 71% 30.03 in 10.0 mi WSW 9.2 mph - N/A   Clear
5:35 AM 44.6 °F 39.7 °F 35.6 °F 71% 30.03 in 10.0 mi West 9.2 mph - N/A   Clear
5:55 AM 44.6 °F 39.7 °F 37.4 °F 76% 30.04 in 10.0 mi WSW 9.2 mph - N/A   Clear
6:15 AM 44.6 °F 39.7 °F 37.4 °F 76% 30.04 in 10.0 mi WSW 9.2 mph - N/A   Clear
6:35 AM 44.6 °F 39.7 °F 37.4 °F 76% 30.05 in 10.0 mi WSW 9.2 mph - N/A   Clear
6:55 AM 42.8 °F 39.3 °F 37.4 °F 81% 30.05 in 10.0 mi WSW 5.8 mph - N/A   Clear
7:15 AM 42.8 °F 39.3 °F 37.4 °F 81% 30.05 in 10.0 mi WSW 5.8 mph - N/A   Clear
7:35 AM 42.8 °F 41.1 °F 37.4 °F 81% 30.07 in 10.0 mi West 3.5 mph - N/A   Clear
8:15 AM 42.8 °F 40.1 °F 37.4 °F 81% 30.09 in 10.0 mi SW 4.6 mph - N/A   Clear
8:35 AM 44.6 °F 41.4 °F 39.2 °F 81% 30.09 in 10.0 mi WSW 5.8 mph - N/A   Clear
8:55 AM 46.4 °F 44.3 °F 41.0 °F 81% 30.10 in 10.0 mi West 4.6 mph - N/A   Clear
9:15 AM 50.0 °F - 41.0 °F 71% 30.11 in 10.0 mi West 6.9 mph - N/A   Clear
9:35 AM 51.8 °F - 41.0 °F 67% 30.12 in 10.0 mi WNW 11.5 mph - N/A   Clear
9:55 AM 51.8 °F - 41.0 °F 67% 30.13 in 10.0 mi WNW 12.7 mph 18.4 mph N/A   Clear
10:15 AM 53.6 °F - 39.2 °F 58% 30.14 in 10.0 mi NW 15.0 mph - N/A   Clear
10:35 AM 53.6 °F - 37.4 °F 54% 30.16 in 10.0 mi North 18.4 mph 24.2 mph N/A   Clear
10:55 AM 50.0 °F - 35.6 °F 58% 30.18 in 10.0 mi NNE 16.1 mph - N/A   Clear
11:15 AM 50.0 °F - 32.0 °F 50% 30.18 in 10.0 mi North 19.6 mph 23.0 mph N/A   Clear
11:35 AM 48.2 °F - 32.0 °F 54% 30.20 in 10.0 mi North 18.4 mph 24.2 mph N/A   Clear
11:55 AM 48.2 °F - 30.2 °F 50% 30.21 in 10.0 mi NNE 15.0 mph 25.3 mph N/A   Clear
12:15 PM 48.2 °F - 28.4 °F 46% 30.21 in 10.0 mi North 17.3 mph 21.9 mph N/A   Clear
12:35 PM 48.2 °F - 26.6 °F 43% 30.22 in 10.0 mi North 18.4 mph 23.0 mph N/A   Clear
12:55 PM 48.2 °F - 26.6 °F 43% 30.23 in 10.0 mi NNE 13.8 mph 23.0 mph N/A   Clear
1:15 PM 46.4 °F 40.1 °F 23.0 °F 40% 30.23 in 10.0 mi North 15.0 mph 21.9 mph N/A   Clear
1:35 PM 48.2 °F - 23.0 °F 37% 30.24 in 10.0 mi NNE 19.6 mph 23.0 mph N/A   Clear
1:55 PM 48.2 °F - 23.0 °F 37% 30.25 in 10.0 mi NNE 12.7 mph 18.4 mph N/A   Clear
2:15 PM 48.2 °F - 21.2 °F 34% 30.25 in 10.0 mi NNE 18.4 mph 25.3 mph N/A   Clear
2:35 PM 48.2 °F - 21.2 °F 34% 30.26 in 10.0 mi North 11.5 mph 20.7 mph N/A   Clear
2:55 PM 46.4 °F 40.4 °F 21.2 °F 37% 30.28 in 10.0 mi North 13.8 mph 25.3 mph N/A   Scattered Clouds
3:15 PM 46.4 °F 39.5 °F 21.2 °F 37% 30.27 in 10.0 mi North 17.3 mph 24.2 mph N/A   Scattered Clouds
3:35 PM 46.4 °F 40.1 °F 21.2 °F 37% 30.28 in 10.0 mi North 15.0 mph 19.6 mph N/A   Clear
3:55 PM 44.6 °F 37.4 °F 19.4 °F 37% 30.31 in 10.0 mi NNE 16.1 mph 24.2 mph N/A   Clear
4:15 PM 44.6 °F 36.9 °F 17.6 °F 34% 30.31 in 10.0 mi North 18.4 mph 23.0 mph N/A   Clear
4:35 PM 44.6 °F 37.4 °F 17.6 °F 34% 30.33 in 10.0 mi North 16.1 mph 21.9 mph N/A   Clear
5:15 PM 42.8 °F 35.4 °F 14.0 °F 31% 30.36 in 10.0 mi North 15.0 mph 21.9 mph N/A   Clear
5:35 PM 41.0 °F 33.5 °F 12.2 °F 31% 30.37 in 10.0 mi NNE 13.8 mph 23.0 mph N/A   Clear
5:55 PM 37.4 °F 28.9 °F 14.0 °F 38% 30.39 in 10.0 mi NNE 13.8 mph 23.0 mph N/A   Clear
6:35 PM 35.6 °F 25.9 °F 10.4 °F 35% 30.42 in 10.0 mi NNE 16.1 mph 21.9 mph N/A   Clear
6:55 PM 35.6 °F 25.9 °F 10.4 °F 35% 30.43 in 10.0 mi NE 16.1 mph 23.0 mph N/A   Clear
7:15 PM 35.6 °F 26.6 °F 8.6 °F 33% 30.44 in 10.0 mi NNE 13.8 mph 23.0 mph N/A   Clear
7:35 PM 33.8 °F 25.8 °F 8.6 °F 35% 30.45 in 10.0 mi North 10.4 mph 16.1 mph N/A   Clear
7:55 PM 33.8 °F 26.4 °F 10.4 °F 38% 30.46 in 10.0 mi NE 9.2 mph - N/A   Clear
8:15 PM 33.8 °F 26.4 °F 14.0 °F 44% 30.48 in 10.0 mi NE 9.2 mph - N/A   Clear
8:35 PM 32.0 °F 22.5 °F 15.8 °F 51% 30.48 in 10.0 mi ENE 12.7 mph - N/A   Clear
8:55 PM 32.0 °F 23.6 °F 14.0 °F 48% 30.48 in 10.0 mi NE 10.4 mph - N/A   Clear
9:15 PM 32.0 °F 25.6 °F 14.0 °F 48% 30.50 in 10.0 mi ENE 6.9 mph - N/A   Clear
9:35 PM 32.0 °F 23.6 °F 14.0 °F 48% 30.51 in 10.0 mi ENE 10.4 mph - N/A   Clear
9:55 PM 32.0 °F 26.4 °F 12.2 °F 44% 30.51 in 10.0 mi ENE 5.8 mph - N/A   Clear
10:15 PM 30.2 °F 23.4 °F 14.0 °F 51% 30.52 in 10.0 mi NE 6.9 mph - N/A   Clear
10:35 PM 30.2 °F 24.3 °F 14.0 °F 51% 30.52 in 10.0 mi ENE 5.8 mph - N/A   Clear
10:55 PM 30.2 °F 25.4 °F 12.2 °F 47% 30.52 in 10.0 mi ENE 4.6 mph - N/A   Clear
11:15 PM 30.2 °F 25.4 °F 12.2 °F 47% 30.53 in 10.0 mi ENE 4.6 mph - N/A   Clear
11:35 PM 28.4 °F 22.2 °F 14.0 °F 55% 30.53 in 10.0 mi East 5.8 mph - N/A   Clear
11:55 PM 30.2 °F 25.4 °F 12.2 °F 47% 30.52 in 10.0 mi ENE 4.6 mph - N/A   Clear